Time;durP1;ratioP1;P1;durP2;ratioP2;P2;SDS_P1;SDS_P2;PMS_P1;PMS_P2;Temp;Humidity;BMP_temperature;BMP_pressure;BME280_temperature;BME280_humidity;BME280_pressure;Samples;Min_cycle;Max_cycle;Signal;HPM_P1;HPM_P2
2020/12/07 00:05:13;;;;;;;20.88;11.20;;;;;;;3.05;100.00;100118.80;10712912;82;21103;-85
2020/12/07 00:20:17;;;;;;;22.50;11.15;;;;;;;3.08;100.00;100099.64;10789279;80;21677;-82
2020/12/07 00:35:22;;;;;;;22.22;12.47;;;;;;;2.93;100.00;100114.33;10797525;80;21021;-82
2020/12/07 00:50:27;;;;;;;21.45;11.57;;;;;;;2.74;100.00;100115.41;10808339;80;21076;-84
2020/12/07 01:05:31;;;;;;;22.42;11.73;;;;;;;2.55;100.00;100079.83;10782118;80;21482;-84
2020/12/07 01:20:36;;;;;;;20.65;11.85;;;;;;;2.44;100.00;100081.75;10681493;82;21049;-81
2020/12/07 01:35:42;;;;;;;23.38;13.22;;;;;;;2.46;100.00;100080.73;10701135;81;21104;-86
2020/12/07 01:50:46;;;;;;;27.07;11.38;;;;;;;2.30;100.00;100076.91;10682226;82;21020;-84
2020/12/07 02:05:50;;;;;;;21.33;10.20;;;;;;;2.26;100.00;100069.41;10731816;82;21064;-85
2020/12/07 02:20:55;;;;;;;32.45;13.38;;;;;;;2.14;100.00;100057.52;10823450;82;21020;-85
2020/12/07 02:35:59;;;;;;;33.65;13.55;;;;;;;2.21;100.00;100082.59;10848499;82;21017;-85
2020/12/07 02:51:03;;;;;;;34.18;15.13;;;;;;;2.21;100.00;100082.59;10627183;82;21040;-80
2020/12/07 03:06:08;;;;;;;23.60;13.68;;;;;;;2.26;100.00;100079.30;10805618;82;21049;-83
2020/12/07 03:21:12;;;;;;;19.55;10.72;;;;;;;2.15;100.00;100062.23;10704964;82;20981;-83
2020/12/07 03:36:16;;;;;;;22.58;11.68;;;;;;;2.15;100.00;100062.23;10705821;82;21060;-83
2020/12/07 03:51:21;;;;;;;23.77;12.63;;;;;;;2.14;100.00;100069.17;10735256;82;21034;-84
2020/12/07 04:06:28;;;;;;;16.10;8.83;;;;;;;2.06;100.00;100066.19;10749035;82;21096;-83
2020/12/07 04:21:31;;;;;;;22.03;11.60;;;;;;;2.11;100.00;100056.42;10736176;82;21469;-82
2020/12/07 04:36:36;;;;;;;35.00;18.10;;;;;;;2.11;100.00;100071.94;10747943;82;21021;-82
2020/12/07 04:51:42;;;;;;;27.73;13.85;;;;;;;2.02;100.00;100053.05;10737770;82;21135;-84
2020/12/07 05:07:00;;;;;;;31.40;13.35;;;;;;;2.16;100.00;100059.58;10732442;82;21109;-82
2020/12/07 05:22:15;;;;;;;18.67;10.65;;;;;;;2.07;100.00;100045.87;10733206;82;21080;-86
2020/12/07 05:37:19;;;;;;;27.37;13.38;;;;;;;1.78;100.00;100011.25;10693658;81;21115;-87
2020/12/07 05:52:49;;;;;;;37.25;17.67;;;;;;;1.90;100.00;100026.55;10730494;82;21040;-86
2020/12/07 06:08:08;;;;;;;50.80;24.15;;;;;;;1.79;100.00;100034.45;10555650;83;21065;-82
2020/12/07 06:23:16;;;;;;;20.55;11.75;;;;;;;1.79;100.00;100034.45;10469225;83;21075;-81
2020/12/07 06:38:21;;;;;;;28.70;13.38;;;;;;;1.69;100.00;100039.78;10615134;82;21120;-86
2020/12/07 06:53:41;;;;;;;22.93;13.83;;;;;;;1.72;100.00;100043.48;10674973;82;21044;-87
2020/12/07 07:08:46;;;;;;;108.63;45.28;;;;;;;1.68;100.00;100050.18;10722751;82;21064;-83
2020/12/07 07:23:52;;;;;;;109.37;37.33;;;;;;;1.76;100.00;100073.90;10586509;83;21015;-81
2020/12/07 07:38:58;;;;;;;47.63;22.80;;;;;;;1.84;100.00;100069.12;10502556;83;21061;-82
2020/12/07 08:25:06;;;;;;;38.75;16.73;;;;;;;1.60;100.00;100045.45;10221331;86;21061;-82
2020/12/07 08:40:11;;;;;;;41.68;19.07;;;;;;;1.81;100.00;100080.48;10663380;82;21564;-82
2020/12/07 08:55:15;;;;;;;32.38;16.40;;;;;;;1.75;100.00;100043.30;10718061;81;21526;-83
2020/12/07 09:10:20;;;;;;;29.87;13.85;;;;;;;2.00;100.00;100049.70;10634584;81;21589;-84
2020/12/07 09:25:24;;;;;;;49.83;22.15;;;;;;;2.00;100.00;100049.70;10151350;85;21145;-83
2020/12/07 09:40:29;;;;;;;66.62;29.35;;;;;;;1.95;100.00;100059.47;10532425;83;21113;-83
2020/12/07 09:55:33;;;;;;;32.95;16.55;;;;;;;1.95;100.00;100059.47;10617481;83;21059;-83
2020/12/07 10:10:38;;;;;;;70.10;27.05;;;;;;;1.68;100.00;100056.20;10658511;82;21062;-83
2020/12/07 10:25:49;;;;;;;49.87;19.40;;;;;;;1.72;100.00;100031.84;10717698;82;21317;-83
2020/12/07 10:40:55;;;;;;;81.47;28.02;;;;;;;2.18;100.00;100033.61;10717534;81;21021;-83
2020/12/07 10:56:00;;;;;;;30.90;14.38;;;;;;;2.58;100.00;100018.80;10763752;81;21037;-84
2020/12/07 11:11:08;;;;;;;48.58;17.62;;;;;;;2.78;100.00;100040.93;10674249;81;21071;-84
2020/12/07 11:26:14;;;;;;;32.55;12.45;;;;;;;3.26;95.63;100035.45;10705148;81;21021;-84
2020/12/07 11:41:37;;;;;;;61.10;24.10;;;;;;;3.40;93.23;100012.10;10716494;82;22172;-83
2020/12/07 11:56:36;;;;;;;157.60;54.05;;;;;;;3.95;90.24;100019.44;10743580;82;21041;-84
2020/12/07 12:11:43;;;;;;;47.43;20.77;;;;;;;3.65;87.99;100004.90;10718695;82;21138;-84
2020/12/07 12:26:48;;;;;;;101.70;32.70;;;;;;;3.61;87.01;100011.22;10755543;81;21033;-84
2020/12/07 12:41:53;;;;;;;44.48;20.75;;;;;;;3.50;87.83;99997.63;10450392;83;21096;-83
2020/12/07 12:56:57;;;;;;;34.63;17.62;;;;;;;3.77;87.03;99976.03;10464516;83;21080;-85
2020/12/07 13:12:01;;;;;;;161.37;67.80;;;;;;;4.25;79.72;99978.58;10761815;81;21064;-84
2020/12/07 13:27:18;;;;;;;165.60;50.30;;;;;;;3.76;85.75;99991.71;10731908;81;21051;-84
2020/12/07 13:42:19;;;;;;;32.98;13.90;;;;;;;2.77;88.91;99994.77;10733345;81;21079;-85
2020/12/07 13:57:23;;;;;;;36.05;13.75;;;;;;;2.44;91.79;99984.20;10817395;80;21028;-84
2020/12/07 14:12:28;;;;;;;18.00;7.80;;;;;;;1.97;95.46;100000.73;10707427;81;21041;-83
2020/12/07 14:27:54;;;;;;;199.40;56.83;;;;;;;1.44;97.73;100000.18;10624278;81;21051;-83
2020/12/07 14:42:52;;;;;;;143.72;41.13;;;;;;;1.28;97.91;100016.98;10701895;81;21080;-83
2020/12/07 15:28:50;;;;;;;81.05;24.80;;;;;;;1.06;98.08;100075.45;10339033;82;21056;-84
2020/12/07 15:43:54;;;;;;;69.55;25.37;;;;;;;1.02;97.59;100116.09;10536786;81;21053;-83
2020/12/07 15:58:58;;;;;;;101.22;30.72;;;;;;;1.01;96.87;100123.46;10738793;81;21032;-83
2020/12/07 16:14:02;;;;;;;61.02;23.20;;;;;;;0.96;96.81;100143.09;10724173;81;21567;-84
2020/12/07 16:29:07;;;;;;;70.03;24.50;;;;;;;0.96;96.81;100143.09;10726041;80;21080;-83
2020/12/07 16:44:11;;;;;;;39.03;16.17;;;;;;;0.96;96.30;100159.02;10744169;80;21095;-83
2020/12/07 16:59:17;;;;;;;52.13;21.65;;;;;;;0.86;96.83;100175.88;10480823;83;21072;-81
2020/12/07 17:14:22;;;;;;;44.85;20.43;;;;;;;0.78;96.83;100195.19;10506322;82;21041;-82
2020/12/07 17:29:26;;;;;;;37.23;17.77;;;;;;;0.84;97.41;100204.38;10551632;82;21474;-83
2020/12/07 17:44:32;;;;;;;70.97;26.60;;;;;;;0.78;97.75;100236.52;10549831;84;21636;-82
2020/12/07 17:59:36;;;;;;;25.43;12.23;;;;;;;0.88;97.51;100233.02;10537760;82;21080;-82
2020/12/07 18:14:40;;;;;;;25.75;11.97;;;;;;;0.87;98.75;100230.52;10607371;80;21096;-82
2020/12/07 18:29:45;;;;;;;19.75;9.73;;;;;;;0.62;100.00;100213.17;10754872;80;21053;-82
2020/12/07 18:44:50;;;;;;;21.73;11.00;;;;;;;0.62;100.00;100213.17;10701622;82;21056;-81
2020/12/07 18:59:54;;;;;;;25.57;11.33;;;;;;;0.50;100.00;100191.80;10675490;82;21096;-81
2020/12/07 19:14:59;;;;;;;90.53;27.07;;;;;;;0.39;100.00;100179.41;10556965;83;21454;-80
2020/12/07 19:30:05;;;;;;;47.10;17.37;;;;;;;0.24;100.00;100173.23;10693724;81;21450;-83
2020/12/07 19:45:10;;;;;;;63.85;21.42;;;;;;;-0.01;100.00;100171.78;10742396;81;21029;-81
2020/12/07 20:00:14;;;;;;;100.30;32.48;;;;;;;0.09;100.00;100188.98;10777297;81;21083;-81
2020/12/07 20:15:19;;;;;;;82.92;31.60;;;;;;;-0.05;100.00;100183.61;10711453;81;21482;-81
2020/12/07 20:30:24;;;;;;;82.60;23.12;;;;;;;0.00;100.00;100179.09;10660455;81;21039;-82
2020/12/07 20:45:28;;;;;;;34.60;14.35;;;;;;;0.00;100.00;100176.50;10777182;81;21458;-81
2020/12/07 21:00:34;;;;;;;51.28;17.23;;;;;;;-0.17;100.00;100174.69;10781657;81;21100;-81
2020/12/07 21:15:42;;;;;;;127.42;38.08;;;;;;;-0.29;100.00;100179.94;10744577;82;21496;-82
2020/12/07 21:30:48;;;;;;;40.25;17.02;;;;;;;-0.22;100.00;100189.53;10716655;82;21516;-82
2020/12/07 21:45:53;;;;;;;39.73;16.37;;;;;;;-0.41;100.00;100184.33;10743714;82;21033;-82
2020/12/07 22:01:01;;;;;;;79.90;22.05;;;;;;;-0.39;100.00;100185.94;10733336;82;21111;-81
2020/12/07 22:16:08;;;;;;;32.20;14.03;;;;;;;-0.59;100.00;100176.97;10691325;82;21138;-81
2020/12/07 22:31:16;;;;;;;41.98;18.07;;;;;;;-0.43;100.00;100204.20;10682437;82;21072;-82
2020/12/07 22:46:22;;;;;;;33.93;13.57;;;;;;;-0.44;100.00;100205.10;10673445;82;21131;-80
2020/12/07 23:01:29;;;;;;;31.70;14.90;;;;;;;-0.60;100.00;100194.16;10670151;82;21020;-80
2020/12/07 23:16:33;;;;;;;50.63;18.73;;;;;;;-0.60;100.00;100201.06;10737846;81;21088;-80
2020/12/07 23:31:38;;;;;;;41.15;18.77;;;;;;;-0.67;100.00;100208.22;10813143;81;21052;-80
2020/12/07 23:46:45;;;;;;;32.05;14.03;;;;;;;-0.70;100.00;100213.48;10811368;81;21126;-86
